Latest Coastal Weather Observations for Mallacoota

IDV60701

Issued at 9:31 pm EDT Monday 22 December 2014 (issued every 10 minutes, with the page automatically refreshed every 10 minutes)

About coastal observations | Map of coastal stations | Coastal observations for VIC | Marine services | Other Formats
Station Details ID: 084084 Name: MALLACOOTA Lat: -37.60 Lon: 149.73 Height: 22.0 m
Data from the previous 72 hours. | See also: Recent months at Mallacoota
Date/Time
EDT
Temp

°C
Wind Pressure Rain
since 9am
mm
Weather Cloud Vis
km
Sea
Height
m
Swell
Dir
 
Speed
knots
Gust
knots
hPa Trend Height
m
Period
s
Dir
22/09:30pm 22.7 NNE 6 11 1011.4 - 0.0 - - - - - - -
22/09:00pm 21.1 NNE 10 14 1010.6 - 0.0 - - - - - - -
22/08:30pm 23.6 NNE 7 10 1010.7 - 0.0 - - - - - - -
22/08:00pm 24.0 N 7 10 1010.7 - 0.0 - - - - - - -
22/07:30pm 24.2 N 8 12 1011.2 - 0.0 - - - - - - -
22/07:00pm 24.3 N 12 18 1011.2 - 0.0 - - - - - - -
22/06:30pm 24.5 N 9 12 1011.0 - 0.0 - - - - - - -
22/06:00pm 25.2 NNE 6 8 1010.9 - 0.0 - - - - - - -
22/05:30pm 25.3 NNE 7 11 1010.7 - 0.0 - - - - - - -
22/05:00pm 22.5 ENE 10 14 1010.5 - 0.0 - - - - - - -
22/04:30pm 27.0 NNE 6 10 1010.4 - 0.0 - - - - - - -
22/04:00pm 27.5 NNE 11 18 1010.4 - 0.0 - - - - - - -
22/03:30pm 28.9 N 15 25 1011.0 - 0.0 - - - - - - -
22/03:23pm 29.2 N 15 25 1011.2 - 0.0 - - - - - - -
22/03:00pm 28.7 NNE 12 19 1010.7 - 0.0 - - - - - - -
22/02:30pm 29.5 NNE 12 18 1011.0 - 0.0 - - - - - - -
22/02:00pm 29.6 NNE 13 18 1011.1 - 0.0 - - - - - - -
22/01:30pm 28.1 ENE 10 13 1012.0 - 0.0 - - - - - - -
22/01:00pm 28.9 NNE 7 12 1012.6 - 0.0 - - - - - - -
22/12:30pm 30.4 N 10 14 1012.9 - 0.0 - - - - - - -
22/12:00pm 29.0 NE 6 10 1012.9 - 0.0 - - - - - - -
22/11:30am 25.3 E 5 6 1013.3 - 0.0 - - - - - - -
22/11:00am 25.5 NE 7 12 1013.6 - 0.0 - - - - - - -
22/10:30am 27.6 N 12 18 1013.5 - 0.0 - - - - - - -
22/10:00am 26.8 N 7 11 1013.8 - 0.0 - - - - - - -
22/09:30am 25.7 N 11 16 1013.8 - 0.0 - - - - - - -
22/09:00am 24.6 N 8 12 1013.6 - 0.0 - - - - - - -
22/08:30am 23.1 N 7 11 1013.7 - 0.0 - - - - - - -
22/08:00am 21.3 N 5 9 1013.9 - 0.0 - - - - - - -
22/07:30am 20.2 N 8 11 1013.8 - 0.0 - - - - - - -
22/07:00am 19.1 NNW 8 10 1013.8 - 0.0 - - - - - - -
22/06:30am 18.0 NNW 9 12 1013.8 - 0.0 - - - - - - -
22/06:00am 17.3 NNW 6 9 1013.5 - 0.0 - - - - - - -
22/05:30am 16.6 NNW 2 6 1013.6 - 0.0 - - - - - - -
22/05:00am 17.4 N 4 6 1013.4 - 0.0 - - - - - - -
22/04:30am 17.5 NNW 4 7 1013.4 - 0.0 - - - - - - -
22/04:00am 17.5 NNW 6 8 1013.4 - 0.0 - - - - - - -
22/03:30am 17.2 N 6 7 1013.6 - 0.0 - - - - - - -
22/03:00am 17.6 NNW 6 8 1013.9 - 0.0 - - - - - - -
22/02:30am 16.4 N 3 4 1014.3 - 0.0 - - - - - - -
22/02:00am 17.3 ENE 2 3 1014.4 - 0.0 - - - - - - -
22/01:30am 18.1 N 4 6 1014.2 - 0.0 - - - - - - -
22/01:00am 18.3 NNW 5 7 1014.2 - 0.0 - - - - - - -
22/12:30am 18.6 N 5 8 1014.4 - 0.0 - - - - - - -
22/12:00am 19.0 NNW 7 10 1014.2 - 0.0 - - - - - - -
 
Date/Time
EDT
Temp

°C
Wind Pressure Rain
since 9am
mm
Weather Cloud Vis
km
Sea
Height
m
Swell
Dir
 
Speed
knots
Gust
knots
hPa Trend Height
m
Period
s
Dir
21/11:30pm 19.2 NNW 7 10 1014.4 - 0.0 - - - - - - -
21/11:00pm 19.5 NNW 9 12 1014.5 - 0.0 - - - - - - -
21/10:30pm 19.6 NNW 8 12 1014.6 - 0.0 - - - - - - -
21/10:00pm 19.8 NNW 7 9 1014.7 - 0.0 - - - - - - -
21/09:30pm 20.2 NNW 7 11 1014.6 - 0.0 - - - - - - -
21/09:00pm 20.7 N 7 9 1014.4 - 0.0 - - - - - - -
21/08:30pm 21.2 NNW 6 9 1014.6 - 0.0 - - - - - - -
21/08:00pm 22.2 NNW 6 9 1014.5 - 0.0 - - - - - - -
21/07:30pm 23.3 N 6 10 1014.1 - 0.0 - - - - - - -
21/07:00pm 24.8 N 7 10 1013.8 - 0.0 - - - - - - -
21/06:30pm 24.7 NNE 7 10 1013.4 - 0.0 - - - - - - -
21/06:00pm 23.7 NE 4 7 1013.4 - 0.0 - - - - - - -
21/05:30pm 23.3 NE 4 8 1013.7 - 0.0 - - - - - - -
21/05:00pm 23.5 NE 7 11 1013.7 - 0.0 - - - - - - -
21/04:30pm 23.4 ENE 9 13 1013.7 - 0.0 - - - - - - -
21/04:00pm 23.0 ENE 10 13 1013.8 - 0.0 - - - - - - -
21/03:30pm 22.5 ENE 10 14 1014.0 - 0.0 - - - - - - -
21/03:00pm 22.5 ENE 8 12 1014.0 - 0.0 - - - - - - -
21/02:30pm 22.6 ENE 9 14 1014.3 - 0.0 - - - - - - -
21/02:00pm 22.4 ENE 10 15 1014.4 - 0.0 - - - - - - -
21/01:30pm 22.3 E 10 13 1014.5 - 0.0 - - - - - - -
21/01:00pm 22.1 E 11 16 1014.9 - 0.0 - - - - - - -
21/12:30pm 22.5 E 10 13 1015.1 - 0.0 - - - - - - -
21/12:00pm 22.6 ENE 8 11 1015.5 - 0.0 - - - - - - -
21/11:30am 22.3 ESE 6 8 1015.9 - 0.0 - - - - - - -
21/11:00am 20.5 SE 6 7 1015.9 - 0.0 - - - - - - -
21/10:30am 19.6 ESE 6 7 1016.0 - 0.0 - - - - - - -
21/10:00am 19.2 ESE 6 7 1016.3 - 0.0 - - - - - - -
21/09:30am 18.3 SE 5 6 1016.6 - 0.0 - - - - - - -
21/09:00am 18.4 E 5 6 1016.6 - 0.0 - - - - - - -
21/08:30am 18.5 ENE 4 5 1016.7 - 0.0 - - - - - - -
21/08:00am 16.8 N 5 7 1016.5 - 0.0 - - - - - - -
21/07:30am 14.2 NNW 5 7 1016.3 - 0.0 - - - - - - -
21/07:00am 13.1 NNW 4 7 1016.3 - 0.0 - - - - - - -
21/06:30am 12.3 NW 7 8 1016.3 - 0.0 - - - - - - -
21/06:00am 11.0 NW 6 9 1016.0 - 0.0 - - - - - - -
21/05:30am 10.7 NW 5 7 1016.0 - 0.0 - - - - - - -
21/05:00am 11.0 NW 6 7 1016.1 - 0.0 - - - - - - -
21/04:30am 11.1 NW 6 8 1016.2 - 0.0 - - - - - - -
21/04:00am 11.0 NW 4 6 1016.5 - 0.0 - - - - - - -
21/03:30am 11.7 WNW 5 7 1016.7 - 0.0 - - - - - - -
21/03:00am 11.7 NW 5 6 1016.8 - 0.0 - - - - - - -
21/02:30am 11.7 NW 5 6 1017.1 - 0.0 - - - - - - -
21/02:00am 11.9 NW 6 6 1017.3 - 0.0 - - - - - - -
21/01:30am 12.1 WNW 3 4 1017.5 - 0.0 - - - - - - -
21/01:00am 12.2 NW 2 4 1017.8 - 0.0 - - - - - - -
21/12:30am 12.6 WNW 3 5 1017.9 - 0.0 - - - - - - -
21/12:00am 13.0 NW 2 3 1017.9 - 0.0 - - - - - - -
 
Date/Time
EDT
Temp

°C
Wind Pressure Rain
since 9am
mm
Weather Cloud Vis
km
Sea
Height
m
Swell
Dir
 
Speed
knots
Gust
knots
hPa Trend Height
m
Period
s
Dir
20/11:30pm 13.6 NW 3 4 1018.3 - 0.0 - - - - - - -
20/11:00pm 13.9 NW 4 5 1018.3 - 0.0 - - - - - - -
20/10:30pm 14.4 NW 5 6 1018.4 - 0.0 - - - - - - -
20/10:00pm 15.0 WNW 4 6 1018.3 - 0.0 - - - - - - -
20/09:30pm 14.7 W 4 5 1018.1 - 0.0 - - - - - - -
20/09:00pm 15.3 WSW 3 5 1017.7 - 0.0 - - - - - - -
20/08:30pm 16.2 SW 5 7 1017.6 - 0.0 - - - - - - -
20/08:00pm 17.0 SSW 7 9 1017.3 - 0.0 - - - - - - -
20/07:30pm 17.6 SSW 10 14 1017.0 - 0.0 - - - - - - -
20/07:00pm 18.3 SSW 10 15 1016.7 - 0.0 - - - - - - -
20/06:30pm 18.9 S 10 15 1016.5 - 0.0 - - - - - - -
20/06:00pm 18.7 S 9 15 1016.3 - 0.0 - - - - - - -
20/05:30pm 18.9 SSW 11 19 1016.3 - 0.0 - - - - - - -
20/05:00pm 18.3 SSW 12 18 1016.3 - 0.0 - - - - - - -
20/04:30pm 18.7 SSW 13 20 1016.5 - 0.0 - - - - - - -
20/04:00pm 18.0 SSW 16 23 1016.6 - 0.0 - - - - - - -
20/03:30pm 18.7 S 12 21 1016.8 - 0.0 - - - - - - -
20/03:00pm 18.7 S 12 19 1016.6 - 0.0 - - - - - - -
20/02:30pm 19.1 S 12 20 1016.7 - 0.0 - - - - - - -
20/02:00pm 18.1 S 12 19 1016.7 - 0.0 - - - - - - -
20/01:30pm 18.1 S 13 23 1016.9 - 0.0 - - - - - - -
20/01:00pm 19.0 S 12 20 1017.1 - 0.0 - - - - - - -
20/12:30pm 18.5 S 14 21 1017.3 - 0.0 - - - - - - -
20/12:00pm 19.3 SSW 13 21 1017.4 - 0.0 - - - - - - -
20/11:30am 19.5 S 11 18 1017.4 - 0.0 - - - - - - -
20/11:00am 19.0 SW 8 17 1017.6 - 0.0 - - - - - - -
20/10:30am 18.2 SW 6 11 1017.5 - 0.0 - - - - - - -
20/10:00am 18.1 WSW 9 13 1017.6 - 0.0 - - - - - - -
20/09:30am 17.3 WNW 8 15 1017.7 - 0.0 - - - - - - -
20/09:00am 16.8 W 8 12 1017.7 - 0.2 - - - - - - -
20/08:30am 15.8 W 7 12 1017.8 - 0.2 - - - - - - -
20/08:00am 15.1 W 6 10 1017.6 - 0.2 - - - - - - -
20/07:30am 13.6 WNW 7 11 1017.5 - 0.2 - - - - - - -
20/07:00am 13.6 W 7 10 1017.2 - 0.2 - - - - - - -
20/06:30am 12.2 WNW 7 12 1017.0 - 0.2 - - - - - - -
20/06:00am 11.8 WNW 6 10 1016.8 - 0.2 - - - - - - -
20/05:30am 11.5 WNW 5 8 1016.9 - 0.2 - - - - - - -
20/05:00am 12.1 WNW 4 6 1016.7 - 0.2 - - - - - - -
20/04:30am 12.5 WNW 5 9 1016.7 - 0.2 - - - - - - -
20/04:00am 12.6 WNW 5 7 1016.6 - 0.2 - - - - - - -
20/03:30am 12.6 NW 5 7 1016.8 - 0.2 - - - - - - -
20/03:00am 12.3 NW 5 7 1017.0 - 0.2 - - - - - - -
20/02:30am 12.5 NW 5 7 1017.0 - 0.2 - - - - - - -
20/02:00am 12.6 WNW 6 9 1017.2 - 0.2 - - - - - - -
20/01:30am 12.3 WNW 6 10 1017.5 - 0.2 - - - - - - -
20/01:00am 11.9 WNW 6 9 1017.6 - 0.2 - - - - - - -
20/12:30am 12.0 WNW 6 8 1017.9 - 0.2 - - - - - - -
20/12:00am 12.3 WNW 6 8 1017.9 - 0.2 - - - - - - -
 
Date/Time
EDT
Temp

°C
Wind Pressure Rain
since 9am
mm
Weather Cloud Vis
km
Sea
Height
m
Swell
Dir
 
Speed
knots
Gust
knots
hPa Trend Height
m
Period
s
Dir
19/11:30pm 12.4 NW 4 6 1018.1 - 0.2 - - - - - - -
19/11:00pm 13.2 W 4 8 1018.3 - 0.2 - - - - - - -
19/10:30pm 12.9 WNW 4 5 1018.3 - 0.2 - - - - - - -
19/10:00pm 14.0 WSW 4 6 1018.2 - 0.2 - - - - - - -

Other Formats:

Comma delimited format used in spreadsheet applications
http://www.bom.gov.au/fwo/IDV60701/IDV60701.94935.axf

JavaScript Object Notation format (JSON) in row-major order
http://www.bom.gov.au/fwo/IDV60701/IDV60701.94935.json